sensor_id;sensor_type;location;lat;lon;timestamp;temperature;humidity
41756;DHT22;27435;48.480;9.258;2022-07-06T00:01:10;15.00;86.90
41756;DHT22;27435;48.480;9.258;2022-07-06T00:03:35;14.90;87.90
41756;DHT22;27435;48.480;9.258;2022-07-06T00:06:01;14.90;88.60
41756;DHT22;27435;48.480;9.258;2022-07-06T00:08:27;14.80;89.40
41756;DHT22;27435;48.480;9.258;2022-07-06T00:10:52;14.90;88.90
41756;DHT22;27435;48.480;9.258;2022-07-06T00:13:18;14.80;89.30
41756;DHT22;27435;48.480;9.258;2022-07-06T00:15:43;14.70;89.70
41756;DHT22;27435;48.480;9.258;2022-07-06T00:18:09;14.70;90.10
41756;DHT22;27435;48.480;9.258;2022-07-06T00:20:35;14.60;90.90
41756;DHT22;27435;48.480;9.258;2022-07-06T00:23:00;14.70;90.40
41756;DHT22;27435;48.480;9.258;2022-07-06T00:25:26;14.70;90.50
41756;DHT22;27435;48.480;9.258;2022-07-06T00:27:51;14.50;91.70
41756;DHT22;27435;48.480;9.258;2022-07-06T00:30:17;14.50;91.90
41756;DHT22;27435;48.480;9.258;2022-07-06T00:32:43;14.50;91.70
41756;DHT22;27435;48.480;9.258;2022-07-06T00:35:08;14.40;91.70
41756;DHT22;27435;48.480;9.258;2022-07-06T00:37:34;14.40;92.00
41756;DHT22;27435;48.480;9.258;2022-07-06T00:39:59;14.20;93.30
41756;DHT22;27435;48.480;9.258;2022-07-06T00:42:25;14.20;92.90
41756;DHT22;27435;48.480;9.258;2022-07-06T00:44:51;14.30;93.00
41756;DHT22;27435;48.480;9.258;2022-07-06T00:47:16;14.20;93.10
41756;DHT22;27435;48.480;9.258;2022-07-06T00:49:42;14.20;93.60
41756;DHT22;27435;48.480;9.258;2022-07-06T00:52:26;14.00;93.50
41756;DHT22;27435;48.480;9.258;2022-07-06T00:54:52;14.00;93.80
41756;DHT22;27435;48.480;9.258;2022-07-06T00:57:18;14.00;94.30
41756;DHT22;27435;48.480;9.258;2022-07-06T00:59:43;13.90;94.90
41756;DHT22;27435;48.480;9.258;2022-07-06T01:02:09;13.80;95.10
41756;DHT22;27435;48.480;9.258;2022-07-06T01:04:35;13.70;95.60
41756;DHT22;27435;48.480;9.258;2022-07-06T01:07:01;13.70;94.80
41756;DHT22;27435;48.480;9.258;2022-07-06T01:09:27;13.60;95.00
41756;DHT22;27435;48.480;9.258;2022-07-06T01:11:53;13.60;95.50
41756;DHT22;27435;48.480;9.258;2022-07-06T01:14:20;13.60;96.00
41756;DHT22;27435;48.480;9.258;2022-07-06T01:16:45;13.70;96.50
41756;DHT22;27435;48.480;9.258;2022-07-06T01:19:11;13.60;96.60
41756;DHT22;27435;48.480;9.258;2022-07-06T01:21:39;13.50;97.40
41756;DHT22;27435;48.480;9.258;2022-07-06T01:24:05;13.60;97.40
41756;DHT22;27435;48.480;9.258;2022-07-06T01:26:31;13.60;96.90
41756;DHT22;27435;48.480;9.258;2022-07-06T01:28:57;13.60;97.20
41756;DHT22;27435;48.480;9.258;2022-07-06T01:31:26;13.60;96.40
41756;DHT22;27435;48.480;9.258;2022-07-06T01:33:56;13.50;96.90
41756;DHT22;27435;48.480;9.258;2022-07-06T01:36:23;13.40;97.80
41756;DHT22;27435;48.480;9.258;2022-07-06T01:38:50;13.30;98.00
41756;DHT22;27435;48.480;9.258;2022-07-06T01:41:17;13.30;98.40
41756;DHT22;27435;48.480;9.258;2022-07-06T01:43:44;13.30;98.80
41756;DHT22;27435;48.480;9.258;2022-07-06T01:46:10;13.20;99.00
41756;DHT22;27435;48.480;9.258;2022-07-06T01:48:36;13.20;99.00
41756;DHT22;27435;48.480;9.258;2022-07-06T01:51:02;13.20;99.00
41756;DHT22;27435;48.480;9.258;2022-07-06T01:53:28;13.30;99.00
41756;DHT22;27435;48.480;9.258;2022-07-06T01:55:54;13.20;99.00
41756;DHT22;27435;48.480;9.258;2022-07-06T01:58:19;13.30;99.00
41756;DHT22;27435;48.480;9.258;2022-07-06T02:00:45;13.20;99.00
41756;DHT22;27435;48.480;9.258;2022-07-06T02:03:10;13.20;99.00
41756;DHT22;27435;48.480;9.258;2022-07-06T02:05:36;13.10;99.00
41756;DHT22;27435;48.480;9.258;2022-07-06T02:08:02;13.00;99.00
41756;DHT22;27435;48.480;9.258;2022-07-06T02:10:27;13.00;99.00
41756;DHT22;27435;48.480;9.258;2022-07-06T02:12:53;13.00;99.00
41756;DHT22;27435;48.480;9.258;2022-07-06T02:15:18;12.90;99.00
41756;DHT22;27435;48.480;9.258;2022-07-06T02:17:44;12.90;99.00
41756;DHT22;27435;48.480;9.258;2022-07-06T02:20:10;13.00;99.00
41756;DHT22;27435;48.480;9.258;2022-07-06T02:22:36;13.10;99.00
41756;DHT22;27435;48.480;9.258;2022-07-06T02:25:01;13.10;99.00
41756;DHT22;27435;48.480;9.258;2022-07-06T02:27:27;13.00;99.00
41756;DHT22;27435;48.480;9.258;2022-07-06T02:29:53;13.10;99.00
41756;DHT22;27435;48.480;9.258;2022-07-06T02:32:18;13.10;99.00
41756;DHT22;27435;48.480;9.258;2022-07-06T02:34:44;12.90;99.00
41756;DHT22;27435;48.480;9.258;2022-07-06T02:37:10;12.80;99.00
41756;DHT22;27435;48.480;9.258;2022-07-06T02:39:35;12.80;99.00
41756;DHT22;27435;48.480;9.258;2022-07-06T02:42:01;12.80;99.00
41756;DHT22;27435;48.480;9.258;2022-07-06T02:44:27;12.80;99.00
41756;DHT22;27435;48.480;9.258;2022-07-06T02:46:52;12.70;99.00
41756;DHT22;27435;48.480;9.258;2022-07-06T02:49:18;12.70;99.00
41756;DHT22;27435;48.480;9.258;2022-07-06T02:51:44;12.60;99.00
41756;DHT22;27435;48.480;9.258;2022-07-06T02:54:09;12.60;99.00
41756;DHT22;27435;48.480;9.258;2022-07-06T02:56:35;12.60;99.00
41756;DHT22;27435;48.480;9.258;2022-07-06T02:59:00;12.70;99.00
41756;DHT22;27435;48.480;9.258;2022-07-06T03:01:26;12.70;99.00
41756;DHT22;27435;48.480;9.258;2022-07-06T03:03:52;12.70;99.00
41756;DHT22;27435;48.480;9.258;2022-07-06T03:06:17;12.70;99.00
41756;DHT22;27435;48.480;9.258;2022-07-06T03:08:43;12.60;99.00
41756;DHT22;27435;48.480;9.258;2022-07-06T03:11:08;12.70;99.00
41756;DHT22;27435;48.480;9.258;2022-07-06T03:13:35;12.50;99.00
41756;DHT22;27435;48.480;9.258;2022-07-06T03:16:00;12.50;99.00
41756;DHT22;27435;48.480;9.258;2022-07-06T03:18:26;12.30;99.00
41756;DHT22;27435;48.480;9.258;2022-07-06T03:20:52;12.30;99.00
41756;DHT22;27435;48.480;9.258;2022-07-06T03:23:18;12.30;99.00
41756;DHT22;27435;48.480;9.258;2022-07-06T03:25:44;12.40;99.00
41756;DHT22;27435;48.480;9.258;2022-07-06T03:28:10;12.50;99.00
41756;DHT22;27435;48.480;9.258;2022-07-06T03:30:35;12.50;99.00
41756;DHT22;27435;48.480;9.258;2022-07-06T03:33:01;12.50;99.00
41756;DHT22;27435;48.480;9.258;2022-07-06T03:35:26;12.50;99.00
41756;DHT22;27435;48.480;9.258;2022-07-06T03:37:52;12.50;99.00
41756;DHT22;27435;48.480;9.258;2022-07-06T03:40:18;12.40;99.00
41756;DHT22;27435;48.480;9.258;2022-07-06T03:42:43;12.40;99.00
41756;DHT22;27435;48.480;9.258;2022-07-06T03:45:09;12.40;99.00
41756;DHT22;27435;48.480;9.258;2022-07-06T03:47:35;12.40;99.00
41756;DHT22;27435;48.480;9.258;2022-07-06T03:50:01;12.40;99.00
41756;DHT22;27435;48.480;9.258;2022-07-06T03:52:26;12.40;99.00
41756;DHT22;27435;48.480;9.258;2022-07-06T03:54:52;12.50;99.00
41756;DHT22;27435;48.480;9.258;2022-07-06T03:57:17;12.50;99.00
41756;DHT22;27435;48.480;9.258;2022-07-06T03:59:43;12.50;99.00
41756;DHT22;27435;48.480;9.258;2022-07-06T04:02:09;12.60;99.00
41756;DHT22;27435;48.480;9.258;2022-07-06T04:04:34;12.60;99.00
41756;DHT22;27435;48.480;9.258;2022-07-06T04:07:00;12.50;99.00
41756;DHT22;27435;48.480;9.258;2022-07-06T04:09:26;12.50;99.00
41756;DHT22;27435;48.480;9.258;2022-07-06T04:11:51;12.60;99.00
41756;DHT22;27435;48.480;9.258;2022-07-06T04:14:17;12.70;99.00
41756;DHT22;27435;48.480;9.258;2022-07-06T04:16:43;12.70;99.00
41756;DHT22;27435;48.480;9.258;2022-07-06T04:19:09;12.80;99.00
41756;DHT22;27435;48.480;9.258;2022-07-06T04:21:34;12.80;99.00
41756;DHT22;27435;48.480;9.258;2022-07-06T04:24:00;12.80;99.00
41756;DHT22;27435;48.480;9.258;2022-07-06T04:26:26;12.80;99.00
41756;DHT22;27435;48.480;9.258;2022-07-06T04:28:51;12.80;99.00
41756;DHT22;27435;48.480;9.258;2022-07-06T04:31:17;12.90;99.00
41756;DHT22;27435;48.480;9.258;2022-07-06T04:33:43;13.00;99.00
41756;DHT22;27435;48.480;9.258;2022-07-06T04:36:09;13.10;99.00
41756;DHT22;27435;48.480;9.258;2022-07-06T04:38:35;13.10;99.00
41756;DHT22;27435;48.480;9.258;2022-07-06T04:41:01;13.10;99.00
41756;DHT22;27435;48.480;9.258;2022-07-06T04:43:26;13.20;99.00
41756;DHT22;27435;48.480;9.258;2022-07-06T04:45:52;13.20;99.00
41756;DHT22;27435;48.480;9.258;2022-07-06T04:48:18;13.20;99.00
41756;DHT22;27435;48.480;9.258;2022-07-06T04:50:43;13.30;99.00
41756;DHT22;27435;48.480;9.258;2022-07-06T04:53:09;13.40;99.00
41756;DHT22;27435;48.480;9.258;2022-07-06T04:55:35;13.70;99.00
41756;DHT22;27435;48.480;9.258;2022-07-06T04:58:00;13.60;99.00
41756;DHT22;27435;48.480;9.258;2022-07-06T05:00:26;13.70;99.00
41756;DHT22;27435;48.480;9.258;2022-07-06T05:02:52;13.80;99.00
41756;DHT22;27435;48.480;9.258;2022-07-06T05:05:18;13.90;99.00
41756;DHT22;27435;48.480;9.258;2022-07-06T05:07:43;14.00;99.00
41756;DHT22;27435;48.480;9.258;2022-07-06T05:10:10;14.10;99.00
41756;DHT22;27435;48.480;9.258;2022-07-06T05:12:36;14.30;99.00
41756;DHT22;27435;48.480;9.258;2022-07-06T05:15:02;14.50;99.00
41756;DHT22;27435;48.480;9.258;2022-07-06T05:17:28;14.60;98.30
41756;DHT22;27435;48.480;9.258;2022-07-06T05:19:53;14.80;97.20
41756;DHT22;27435;48.480;9.258;2022-07-06T05:22:19;14.90;97.20
41756;DHT22;27435;48.480;9.258;2022-07-06T05:24:45;15.10;96.10
41756;DHT22;27435;48.480;9.258;2022-07-06T05:27:10;15.20;95.50
41756;DHT22;27435;48.480;9.258;2022-07-06T05:29:36;15.30;93.30
41756;DHT22;27435;48.480;9.258;2022-07-06T05:32:02;15.30;94.30
41756;DHT22;27435;48.480;9.258;2022-07-06T05:34:28;15.50;92.50
41756;DHT22;27435;48.480;9.258;2022-07-06T05:36:53;15.60;92.60
41756;DHT22;27435;48.480;9.258;2022-07-06T05:39:19;15.80;90.40
41756;DHT22;27435;48.480;9.258;2022-07-06T05:41:47;16.10;88.80
41756;DHT22;27435;48.480;9.258;2022-07-06T05:44:12;16.40;88.10
41756;DHT22;27435;48.480;9.258;2022-07-06T05:46:38;16.80;84.80
41756;DHT22;27435;48.480;9.258;2022-07-06T05:49:04;17.40;83.10
41756;DHT22;27435;48.480;9.258;2022-07-06T05:51:48;17.00;81.90
41756;DHT22;27435;48.480;9.258;2022-07-06T05:54:15;16.30;84.60
41756;DHT22;27435;48.480;9.258;2022-07-06T05:56:40;16.80;83.30
41756;DHT22;27435;48.480;9.258;2022-07-06T05:59:06;17.30;81.80
41756;DHT22;27435;48.480;9.258;2022-07-06T06:01:32;17.70;79.40
41756;DHT22;27435;48.480;9.258;2022-07-06T06:03:57;18.30;77.90
41756;DHT22;27435;48.480;9.258;2022-07-06T06:06:25;18.50;77.50
41756;DHT22;27435;48.480;9.258;2022-07-06T06:08:51;18.50;77.30
41756;DHT22;27435;48.480;9.258;2022-07-06T06:11:16;18.00;77.90
41756;DHT22;27435;48.480;9.258;2022-07-06T06:13:42;18.70;75.70
41756;DHT22;27435;48.480;9.258;2022-07-06T06:16:08;18.30;77.10
41756;DHT22;27435;48.480;9.258;2022-07-06T06:18:35;17.50;79.10
41756;DHT22;27435;48.480;9.258;2022-07-06T06:21:00;17.90;79.20
41756;DHT22;27435;48.480;9.258;2022-07-06T06:23:46;18.10;78.90
41756;DHT22;27435;48.480;9.258;2022-07-06T06:26:11;19.20;74.80
41756;DHT22;27435;48.480;9.258;2022-07-06T06:28:37;20.10;72.30
41756;DHT22;27435;48.480;9.258;2022-07-06T06:31:03;20.40;70.90
41756;DHT22;27435;48.480;9.258;2022-07-06T06:33:28;20.60;70.90
41756;DHT22;27435;48.480;9.258;2022-07-06T06:35:54;20.10;70.90
41756;DHT22;27435;48.480;9.258;2022-07-06T06:38:21;20.40;69.80
41756;DHT22;27435;48.480;9.258;2022-07-06T06:40:47;20.00;70.90
41756;DHT22;27435;48.480;9.258;2022-07-06T06:43:19;20.40;71.00
41756;DHT22;27435;48.480;9.258;2022-07-06T06:45:45;21.00;67.20
41756;DHT22;27435;48.480;9.258;2022-07-06T06:48:11;20.80;68.10
41756;DHT22;27435;48.480;9.258;2022-07-06T06:50:37;20.70;68.30
41756;DHT22;27435;48.480;9.258;2022-07-06T06:53:03;20.50;69.20
41756;DHT22;27435;48.480;9.258;2022-07-06T06:55:28;20.80;68.60
41756;DHT22;27435;48.480;9.258;2022-07-06T06:57:54;20.90;68.00
41756;DHT22;27435;48.480;9.258;2022-07-06T07:00:20;20.70;69.30
41756;DHT22;27435;48.480;9.258;2022-07-06T07:02:45;19.90;70.30
41756;DHT22;27435;48.480;9.258;2022-07-06T07:05:12;20.70;68.90
41756;DHT22;27435;48.480;9.258;2022-07-06T07:07:38;20.50;69.30
41756;DHT22;27435;48.480;9.258;2022-07-06T07:10:05;20.70;68.50
41756;DHT22;27435;48.480;9.258;2022-07-06T07:12:31;20.80;68.40
41756;DHT22;27435;48.480;9.258;2022-07-06T07:14:58;20.60;68.80
41756;DHT22;27435;48.480;9.258;2022-07-06T07:17:24;21.00;68.70
41756;DHT22;27435;48.480;9.258;2022-07-06T07:19:49;21.00;68.60
41756;DHT22;27435;48.480;9.258;2022-07-06T07:22:15;20.80;68.00
41756;DHT22;27435;48.480;9.258;2022-07-06T07:24:41;20.70;68.70
41756;DHT22;27435;48.480;9.258;2022-07-06T07:27:07;20.40;70.20
41756;DHT22;27435;48.480;9.258;2022-07-06T07:29:32;20.00;71.30
41756;DHT22;27435;48.480;9.258;2022-07-06T07:31:59;19.50;73.50
41756;DHT22;27435;48.480;9.258;2022-07-06T07:34:25;19.30;74.10
41756;DHT22;27435;48.480;9.258;2022-07-06T07:36:51;19.20;74.30
41756;DHT22;27435;48.480;9.258;2022-07-06T07:39:16;19.30;74.80
41756;DHT22;27435;48.480;9.258;2022-07-06T07:41:42;19.60;73.90
41756;DHT22;27435;48.480;9.258;2022-07-06T07:44:08;19.40;74.00
41756;DHT22;27435;48.480;9.258;2022-07-06T07:46:33;19.40;75.60
41756;DHT22;27435;48.480;9.258;2022-07-06T07:48:59;19.20;75.10
41756;DHT22;27435;48.480;9.258;2022-07-06T07:51:24;18.70;76.70
41756;DHT22;27435;48.480;9.258;2022-07-06T07:53:50;18.80;77.20
41756;DHT22;27435;48.480;9.258;2022-07-06T07:56:16;19.10;76.40
41756;DHT22;27435;48.480;9.258;2022-07-06T07:58:41;19.30;75.90
41756;DHT22;27435;48.480;9.258;2022-07-06T08:01:07;19.50;74.80
41756;DHT22;27435;48.480;9.258;2022-07-06T08:03:33;19.50;74.00
41756;DHT22;27435;48.480;9.258;2022-07-06T08:05:58;19.70;73.80
41756;DHT22;27435;48.480;9.258;2022-07-06T08:08:24;19.40;74.60
41756;DHT22;27435;48.480;9.258;2022-07-06T08:10:50;19.60;74.10
41756;DHT22;27435;48.480;9.258;2022-07-06T08:13:15;19.90;73.40
41756;DHT22;27435;48.480;9.258;2022-07-06T08:15:41;20.10;72.70
41756;DHT22;27435;48.480;9.258;2022-07-06T08:18:07;20.00;73.40
41756;DHT22;27435;48.480;9.258;2022-07-06T08:20:35;19.90;73.30
41756;DHT22;27435;48.480;9.258;2022-07-06T08:23:01;19.70;73.90
41756;DHT22;27435;48.480;9.258;2022-07-06T08:25:26;19.80;73.60
41756;DHT22;27435;48.480;9.258;2022-07-06T08:27:52;19.90;74.10
41756;DHT22;27435;48.480;9.258;2022-07-06T08:30:17;20.00;72.50
41756;DHT22;27435;48.480;9.258;2022-07-06T08:32:43;20.00;73.10
41756;DHT22;27435;48.480;9.258;2022-07-06T08:35:10;19.80;73.80
41756;DHT22;27435;48.480;9.258;2022-07-06T08:37:35;19.70;74.10
41756;DHT22;27435;48.480;9.258;2022-07-06T08:40:03;19.60;75.50
41756;DHT22;27435;48.480;9.258;2022-07-06T08:42:33;20.00;75.40
41756;DHT22;27435;48.480;9.258;2022-07-06T08:45:00;20.40;74.50
41756;DHT22;27435;48.480;9.258;2022-07-06T08:47:27;20.20;73.50
41756;DHT22;27435;48.480;9.258;2022-07-06T08:49:53;20.10;72.00
41756;DHT22;27435;48.480;9.258;2022-07-06T08:52:21;20.10;74.40
41756;DHT22;27435;48.480;9.258;2022-07-06T08:54:46;20.20;72.70
41756;DHT22;27435;48.480;9.258;2022-07-06T08:57:12;20.30;72.70
41756;DHT22;27435;48.480;9.258;2022-07-06T08:59:39;20.40;72.50
41756;DHT22;27435;48.480;9.258;2022-07-06T09:02:05;20.30;73.10
41756;DHT22;27435;48.480;9.258;2022-07-06T09:04:33;20.50;72.90
41756;DHT22;27435;48.480;9.258;2022-07-06T09:06:59;20.40;73.00
41756;DHT22;27435;48.480;9.258;2022-07-06T09:09:25;20.30;73.70
41756;DHT22;27435;48.480;9.258;2022-07-06T09:11:51;20.40;72.70
41756;DHT22;27435;48.480;9.258;2022-07-06T09:14:19;20.60;72.40
41756;DHT22;27435;48.480;9.258;2022-07-06T09:16:51;20.90;71.80
41756;DHT22;27435;48.480;9.258;2022-07-06T09:19:17;21.00;70.40
41756;DHT22;27435;48.480;9.258;2022-07-06T09:21:43;20.90;70.50
41756;DHT22;27435;48.480;9.258;2022-07-06T09:24:12;20.90;69.70
41756;DHT22;27435;48.480;9.258;2022-07-06T09:26:39;20.90;71.30
41756;DHT22;27435;48.480;9.258;2022-07-06T09:29:05;21.00;69.50
41756;DHT22;27435;48.480;9.258;2022-07-06T09:31:31;21.30;70.60
41756;DHT22;27435;48.480;9.258;2022-07-06T09:34:08;21.30;70.60
41756;DHT22;27435;48.480;9.258;2022-07-06T09:36:47;21.40;71.40
41756;DHT22;27435;48.480;9.258;2022-07-06T09:39:28;21.60;69.30
41756;DHT22;27435;48.480;9.258;2022-07-06T09:41:56;22.00;69.40
41756;DHT22;27435;48.480;9.258;2022-07-06T09:46:48;21.90;67.70
41756;DHT22;27435;48.480;9.258;2022-07-06T09:49:20;22.10;66.60
41756;DHT22;27435;48.480;9.258;2022-07-06T09:51:48;22.00;64.60
41756;DHT22;27435;48.480;9.258;2022-07-06T09:54:14;21.40;64.80
41756;DHT22;27435;48.480;9.258;2022-07-06T09:56:42;21.50;65.40
41756;DHT22;27435;48.480;9.258;2022-07-06T09:59:09;21.70;64.40
41756;DHT22;27435;48.480;9.258;2022-07-06T10:01:36;21.80;64.40
41756;DHT22;27435;48.480;9.258;2022-07-06T10:04:02;22.00;63.40
41756;DHT22;27435;48.480;9.258;2022-07-06T10:06:29;22.30;62.70
41756;DHT22;27435;48.480;9.258;2022-07-06T10:08:55;22.60;62.30
41756;DHT22;27435;48.480;9.258;2022-07-06T10:11:24;22.60;61.50
41756;DHT22;27435;48.480;9.258;2022-07-06T10:13:55;22.90;62.10
41756;DHT22;27435;48.480;9.258;2022-07-06T10:16:24;22.70;63.10
41756;DHT22;27435;48.480;9.258;2022-07-06T10:18:52;22.70;63.10
41756;DHT22;27435;48.480;9.258;2022-07-06T10:21:23;22.50;64.70
41756;DHT22;27435;48.480;9.258;2022-07-06T10:23:50;22.60;63.90
41756;DHT22;27435;48.480;9.258;2022-07-06T10:26:17;22.30;63.00
41756;DHT22;27435;48.480;9.258;2022-07-06T10:28:44;22.40;64.20
41756;DHT22;27435;48.480;9.258;2022-07-06T10:31:15;22.50;63.10
41756;DHT22;27435;48.480;9.258;2022-07-06T10:33:42;22.80;63.90
41756;DHT22;27435;48.480;9.258;2022-07-06T10:36:09;22.70;63.50
41756;DHT22;27435;48.480;9.258;2022-07-06T10:38:35;23.10;62.50
41756;DHT22;27435;48.480;9.258;2022-07-06T10:41:07;23.50;60.90
41756;DHT22;27435;48.480;9.258;2022-07-06T10:43:36;23.80;59.80
41756;DHT22;27435;48.480;9.258;2022-07-06T10:46:10;24.10;58.80
41756;DHT22;27435;48.480;9.258;2022-07-06T10:48:49;24.40;57.70
41756;DHT22;27435;48.480;9.258;2022-07-06T10:51:26;25.10;57.30
41756;DHT22;27435;48.480;9.258;2022-07-06T10:54:11;25.10;57.10
41756;DHT22;27435;48.480;9.258;2022-07-06T10:56:38;24.30;58.90
41756;DHT22;27435;48.480;9.258;2022-07-06T10:59:19;23.70;59.90
41756;DHT22;27435;48.480;9.258;2022-07-06T11:04:37;23.00;62.10
41756;DHT22;27435;48.480;9.258;2022-07-06T11:07:18;22.80;62.40
41756;DHT22;27435;48.480;9.258;2022-07-06T11:09:57;22.50;62.60
41756;DHT22;27435;48.480;9.258;2022-07-06T11:12:24;22.20;63.70
41756;DHT22;27435;48.480;9.258;2022-07-06T11:14:52;22.30;64.10
41756;DHT22;27435;48.480;9.258;2022-07-06T11:17:18;22.50;62.80
41756;DHT22;27435;48.480;9.258;2022-07-06T11:19:59;23.20;61.20
41756;DHT22;27435;48.480;9.258;2022-07-06T11:22:36;23.50;59.40
41756;DHT22;27435;48.480;9.258;2022-07-06T11:25:07;24.40;58.50
41756;DHT22;27435;48.480;9.258;2022-07-06T11:27:37;24.90;57.20
41756;DHT22;27435;48.480;9.258;2022-07-06T11:30:03;24.80;57.40
41756;DHT22;27435;48.480;9.258;2022-07-06T11:32:32;24.20;57.60
41756;DHT22;27435;48.480;9.258;2022-07-06T11:34:57;23.80;59.10
41756;DHT22;27435;48.480;9.258;2022-07-06T11:37:23;22.80;61.90
41756;DHT22;27435;48.480;9.258;2022-07-06T11:39:51;23.10;61.60
41756;DHT22;27435;48.480;9.258;2022-07-06T11:42:17;23.40;60.90
41756;DHT22;27435;48.480;9.258;2022-07-06T11:44:44;23.70;59.00
41756;DHT22;27435;48.480;9.258;2022-07-06T11:47:11;24.10;59.60
41756;DHT22;27435;48.480;9.258;2022-07-06T11:49:38;23.90;59.60
41756;DHT22;27435;48.480;9.258;2022-07-06T11:52:07;23.80;59.10
41756;DHT22;27435;48.480;9.258;2022-07-06T11:54:33;23.80;60.80
41756;DHT22;27435;48.480;9.258;2022-07-06T11:57:07;23.00;63.10
41756;DHT22;27435;48.480;9.258;2022-07-06T12:00:04;23.10;63.20
41756;DHT22;27435;48.480;9.258;2022-07-06T12:02:31;24.10;61.80
41756;DHT22;27435;48.480;9.258;2022-07-06T12:04:57;24.80;59.50
41756;DHT22;27435;48.480;9.258;2022-07-06T12:07:22;24.60;59.50
41756;DHT22;27435;48.480;9.258;2022-07-06T12:09:48;24.80;59.10
41756;DHT22;27435;48.480;9.258;2022-07-06T12:12:14;24.50;59.00
41756;DHT22;27435;48.480;9.258;2022-07-06T12:14:41;24.10;59.90
41756;DHT22;27435;48.480;9.258;2022-07-06T12:17:12;23.90;60.90
41756;DHT22;27435;48.480;9.258;2022-07-06T12:19:40;24.00;59.70
41756;DHT22;27435;48.480;9.258;2022-07-06T12:22:07;24.50;59.30
41756;DHT22;27435;48.480;9.258;2022-07-06T12:24:34;25.00;58.90
41756;DHT22;27435;48.480;9.258;2022-07-06T12:27:16;25.10;59.20
41756;DHT22;27435;48.480;9.258;2022-07-06T12:29:42;24.00;60.10
41756;DHT22;27435;48.480;9.258;2022-07-06T12:32:21;23.50;61.30
41756;DHT22;27435;48.480;9.258;2022-07-06T12:35:06;23.10;62.20
41756;DHT22;27435;48.480;9.258;2022-07-06T12:37:32;23.00;63.00
41756;DHT22;27435;48.480;9.258;2022-07-06T12:39:58;23.30;63.10
41756;DHT22;27435;48.480;9.258;2022-07-06T12:42:23;23.50;62.50
41756;DHT22;27435;48.480;9.258;2022-07-06T12:44:51;23.90;61.30
41756;DHT22;27435;48.480;9.258;2022-07-06T12:47:21;24.30;61.20
41756;DHT22;27435;48.480;9.258;2022-07-06T12:50:07;24.90;58.90
41756;DHT22;27435;48.480;9.258;2022-07-06T12:52:33;24.70;59.40
41756;DHT22;27435;48.480;9.258;2022-07-06T12:55:00;24.50;60.10
41756;DHT22;27435;48.480;9.258;2022-07-06T12:57:26;24.40;60.70
41756;DHT22;27435;48.480;9.258;2022-07-06T13:02:24;23.80;62.40
41756;DHT22;27435;48.480;9.258;2022-07-06T13:05:00;23.70;61.90
41756;DHT22;27435;48.480;9.258;2022-07-06T13:07:27;23.50;63.20
41756;DHT22;27435;48.480;9.258;2022-07-06T13:09:54;23.40;63.20
41756;DHT22;27435;48.480;9.258;2022-07-06T13:12:20;23.80;62.90
41756;DHT22;27435;48.480;9.258;2022-07-06T13:14:47;24.40;61.60
41756;DHT22;27435;48.480;9.258;2022-07-06T13:17:12;24.50;61.60
41756;DHT22;27435;48.480;9.258;2022-07-06T13:19:38;24.40;61.00
41756;DHT22;27435;48.480;9.258;2022-07-06T13:22:04;24.60;61.40
41756;DHT22;27435;48.480;9.258;2022-07-06T13:24:30;25.10;60.70
41756;DHT22;27435;48.480;9.258;2022-07-06T13:26:56;25.30;60.70
41756;DHT22;27435;48.480;9.258;2022-07-06T13:29:23;24.70;60.60
41756;DHT22;27435;48.480;9.258;2022-07-06T13:31:48;24.80;60.60
41756;DHT22;27435;48.480;9.258;2022-07-06T13:34:14;25.00;59.90
41756;DHT22;27435;48.480;9.258;2022-07-06T13:36:40;25.00;60.30
41756;DHT22;27435;48.480;9.258;2022-07-06T13:39:06;24.60;60.90
41756;DHT22;27435;48.480;9.258;2022-07-06T13:41:33;25.30;60.50
41756;DHT22;27435;48.480;9.258;2022-07-06T13:44:00;25.90;59.10
41756;DHT22;27435;48.480;9.258;2022-07-06T13:46:29;25.20;60.10
41756;DHT22;27435;48.480;9.258;2022-07-06T13:48:55;24.20;62.80
41756;DHT22;27435;48.480;9.258;2022-07-06T13:51:25;23.80;63.60
41756;DHT22;27435;48.480;9.258;2022-07-06T13:53:52;24.30;63.40
41756;DHT22;27435;48.480;9.258;2022-07-06T13:56:18;25.00;61.30
41756;DHT22;27435;48.480;9.258;2022-07-06T13:58:49;25.20;60.60
41756;DHT22;27435;48.480;9.258;2022-07-06T14:01:16;24.50;62.10
41756;DHT22;27435;48.480;9.258;2022-07-06T14:03:41;24.70;61.40
41756;DHT22;27435;48.480;9.258;2022-07-06T14:06:08;25.00;60.50
41756;DHT22;27435;48.480;9.258;2022-07-06T14:08:37;25.00;60.60
41756;DHT22;27435;48.480;9.258;2022-07-06T14:11:04;25.10;61.10
41756;DHT22;27435;48.480;9.258;2022-07-06T14:13:31;25.20;60.60
41756;DHT22;27435;48.480;9.258;2022-07-06T14:15:57;24.90;61.20
41756;DHT22;27435;48.480;9.258;2022-07-06T14:18:23;24.90;60.00
41756;DHT22;27435;48.480;9.258;2022-07-06T14:20:52;25.40;60.20
41756;DHT22;27435;48.480;9.258;2022-07-06T14:23:19;25.40;59.70
41756;DHT22;27435;48.480;9.258;2022-07-06T14:25:45;24.60;61.20
41756;DHT22;27435;48.480;9.258;2022-07-06T14:28:12;24.00;63.30
41756;DHT22;27435;48.480;9.258;2022-07-06T14:30:48;23.70;63.60
41756;DHT22;27435;48.480;9.258;2022-07-06T14:33:27;23.00;65.10
41756;DHT22;27435;48.480;9.258;2022-07-06T14:35:53;23.20;64.80
41756;DHT22;27435;48.480;9.258;2022-07-06T14:38:19;23.40;64.60
41756;DHT22;27435;48.480;9.258;2022-07-06T14:40:46;22.80;65.90
41756;DHT22;27435;48.480;9.258;2022-07-06T14:43:17;22.70;66.90
41756;DHT22;27435;48.480;9.258;2022-07-06T14:45:44;23.10;66.30
41756;DHT22;27435;48.480;9.258;2022-07-06T14:48:10;23.90;63.90
41756;DHT22;27435;48.480;9.258;2022-07-06T14:50:36;24.40;62.20
41756;DHT22;27435;48.480;9.258;2022-07-06T14:53:02;24.10;63.10
41756;DHT22;27435;48.480;9.258;2022-07-06T14:55:27;24.40;62.60
41756;DHT22;27435;48.480;9.258;2022-07-06T14:57:54;24.50;62.00
41756;DHT22;27435;48.480;9.258;2022-07-06T15:00:22;24.70;61.20
41756;DHT22;27435;48.480;9.258;2022-07-06T15:02:48;24.00;62.20
41756;DHT22;27435;48.480;9.258;2022-07-06T15:05:14;23.40;64.30
41756;DHT22;27435;48.480;9.258;2022-07-06T15:07:40;23.40;64.40
41756;DHT22;27435;48.480;9.258;2022-07-06T15:10:07;24.00;62.60
41756;DHT22;27435;48.480;9.258;2022-07-06T15:12:33;25.10;59.50
41756;DHT22;27435;48.480;9.258;2022-07-06T15:14:58;24.40;61.20
41756;DHT22;27435;48.480;9.258;2022-07-06T15:17:24;25.30;59.00
41756;DHT22;27435;48.480;9.258;2022-07-06T15:19:50;24.60;59.40
41756;DHT22;27435;48.480;9.258;2022-07-06T15:22:15;24.40;60.30
41756;DHT22;27435;48.480;9.258;2022-07-06T15:24:44;24.10;61.30
41756;DHT22;27435;48.480;9.258;2022-07-06T15:27:10;24.40;61.30
41756;DHT22;27435;48.480;9.258;2022-07-06T15:29:35;24.50;60.50
41756;DHT22;27435;48.480;9.258;2022-07-06T15:32:01;24.30;60.40
41756;DHT22;27435;48.480;9.258;2022-07-06T15:34:26;24.60;60.00
41756;DHT22;27435;48.480;9.258;2022-07-06T15:36:53;24.20;61.10